Gentry, Missouri
Current Conditions -  °F | °C
As of 4:25 PM on Sunday 23 Nov 2014 (Local Time) from KLWD Reporting Station
Overcast Overcast  
Wind Chill: 38°   Ceiling: 1000
Heat Index: 46°   Visibility: 10mi
Dew Point: 43°   Wind: 20mph
Humidity: 89%   Direction: 330°NNW
Pressure: 29.36"   Gusts: 26mph
Location:  40.33°N, 94.42°W
Report Text: KLWD 232225Z AUTO 33017G23KT 10SM BKN010 OVC021 08/06 A2936 RMK AO2 PK WND 34027/2200 RAE05 CIG 007V015 P0000 T00780061
Loading
Personal Weather Stations






























Interactive Weather Map New forecast layout! Learn more

10-Day Weather Forecast

Advertisements
Track Severe Weather on mobile